createdAt,value
2019-04-30T00:00:46.261Z,23.30
2019-04-30T00:03:19.562Z,23.27
2019-04-30T00:05:49.350Z,22.07
2019-04-30T00:08:17.013Z,22.90
2019-04-30T00:10:45.311Z,24.07
2019-04-30T00:13:17.773Z,22.63
2019-04-30T00:15:42.719Z,23.47
2019-04-30T00:18:08.714Z,24.87
2019-04-30T00:20:38.557Z,23.90
2019-04-30T00:23:05.169Z,23.70
2019-04-30T00:25:31.286Z,24.40
2019-04-30T00:28:05.243Z,22.87
2019-04-30T00:30:31.273Z,23.47
2019-04-30T00:32:57.267Z,24.00
2019-04-30T00:35:25.268Z,24.07
2019-04-30T00:37:57.567Z,22.33
2019-04-30T00:40:21.757Z,24.73
2019-04-30T00:42:48.520Z,23.97
2019-04-30T00:45:15.447Z,23.70
2019-04-30T00:47:44.625Z,24.87
2019-04-30T00:50:11.875Z,23.00
2019-04-30T00:52:37.893Z,23.40
2019-04-30T00:55:09.076Z,25.23
2019-04-30T00:57:37.280Z,26.23
2019-04-30T01:00:09.404Z,22.93
2019-04-30T01:02:48.112Z,23.00
2019-04-30T01:05:18.553Z,24.37
2019-04-30T01:07:48.751Z,23.30
2019-04-30T01:10:15.213Z,25.00
2019-04-30T01:12:47.059Z,24.07
2019-04-30T01:15:14.438Z,23.63
2019-04-30T01:17:40.698Z,24.77
2019-04-30T01:20:10.817Z,23.30
2019-04-30T01:22:38.847Z,24.50
2019-04-30T01:25:08.994Z,23.67
2019-04-30T01:27:39.534Z,24.70
2019-04-30T01:30:08.264Z,24.00
2019-04-30T01:32:34.850Z,26.43
2019-04-30T01:35:06.796Z,23.90
2019-04-30T01:37:33.499Z,22.07
2019-04-30T01:40:03.214Z,24.80
2019-04-30T01:42:28.448Z,24.30
2019-04-30T01:44:54.554Z,24.33
2019-04-30T01:47:27.587Z,26.23
2019-04-30T01:49:51.458Z,24.30
2019-04-30T01:52:19.316Z,24.00
2019-04-30T01:54:46.379Z,24.17
2019-04-30T01:57:15.314Z,25.33
2019-04-30T02:00:01.197Z,26.20
2019-04-30T02:02:29.111Z,23.73
2019-04-30T02:04:56.120Z,24.40
2019-04-30T02:07:22.139Z,22.83
2019-04-30T02:09:48.932Z,21.23
2019-04-30T02:12:15.067Z,22.70
2019-04-30T02:14:41.080Z,23.83
2019-04-30T02:17:07.080Z,21.87
2019-04-30T02:19:33.080Z,22.47
2019-04-30T02:21:59.104Z,23.00
2019-04-30T02:24:25.172Z,23.70
2019-04-30T02:26:51.274Z,21.27
2019-04-30T02:29:19.018Z,21.80
2019-04-30T02:31:45.285Z,22.20
2019-04-30T02:34:15.807Z,22.33
2019-04-30T02:36:43.853Z,22.00
2019-04-30T02:39:11.163Z,21.43
2019-04-30T02:41:41.247Z,20.37
2019-04-30T02:44:09.525Z,20.67
2019-04-30T02:46:36.378Z,23.07
2019-04-30T02:49:02.710Z,22.33
2019-04-30T02:51:30.874Z,23.20
2019-04-30T02:54:09.891Z,21.30
2019-04-30T02:56:40.085Z,20.50
2019-04-30T02:59:05.703Z,23.00
2019-04-30T03:01:31.904Z,20.30
2019-04-30T03:04:03.984Z,22.10
2019-04-30T03:06:30.574Z,21.13
2019-04-30T03:08:56.733Z,20.93
2019-04-30T03:11:22.731Z,22.80
2019-04-30T03:13:51.167Z,21.10
2019-04-30T03:16:20.691Z,20.87
2019-04-30T03:18:51.384Z,20.90
2019-04-30T03:21:36.812Z,19.33
2019-04-30T03:24:04.794Z,20.80
2019-04-30T03:26:30.836Z,20.50
2019-04-30T03:29:00.689Z,21.73
2019-04-30T03:31:25.928Z,20.00
2019-04-30T03:33:52.568Z,18.83
2019-04-30T03:36:21.745Z,22.33
2019-04-30T03:38:46.549Z,19.47
2019-04-30T03:41:13.795Z,21.57
2019-04-30T03:43:40.173Z,19.87
2019-04-30T03:46:06.575Z,19.73
2019-04-30T03:48:32.587Z,20.00
2019-04-30T03:51:01.134Z,20.37
2019-04-30T03:53:26.652Z,19.87
2019-04-30T03:55:52.676Z,22.63
2019-04-30T03:58:21.251Z,20.50
2019-04-30T04:01:09.906Z,20.97
2019-04-30T04:03:37.108Z,22.10
2019-04-30T04:06:21.242Z,21.40
2019-04-30T04:08:56.362Z,20.47
2019-04-30T04:11:25.314Z,19.90
2019-04-30T04:13:53.294Z,20.90
2019-04-30T04:16:19.556Z,20.00
2019-04-30T04:18:46.647Z,19.47
2019-04-30T04:21:16.705Z,21.23
2019-04-30T04:23:40.547Z,21.10
2019-04-30T04:26:09.416Z,20.40
2019-04-30T04:28:42.511Z,23.33
2019-04-30T04:31:05.496Z,22.67
2019-04-30T04:33:32.497Z,19.30
2019-04-30T04:35:59.769Z,20.33
2019-04-30T04:38:26.039Z,22.43
2019-04-30T04:40:52.127Z,19.07
2019-04-30T04:43:20.207Z,20.93
2019-04-30T04:45:46.109Z,20.33
2019-04-30T04:48:12.794Z,20.93
2019-04-30T04:50:40.046Z,20.60
2019-04-30T04:53:08.844Z,19.93
2019-04-30T04:55:35.144Z,20.10
2019-04-30T04:58:01.432Z,20.00
2019-04-30T05:00:29.338Z,20.17
2019-04-30T05:03:02.927Z,20.33
2019-04-30T05:05:29.849Z,19.97
2019-04-30T05:07:58.419Z,21.60
2019-04-30T05:10:24.488Z,22.67
2019-04-30T05:12:51.042Z,20.27
2019-04-30T05:15:19.459Z,21.60
2019-04-30T05:17:46.036Z,21.17
2019-04-30T05:20:12.388Z,20.87
2019-04-30T05:22:38.944Z,19.70
2019-04-30T05:25:05.280Z,20.07
2019-04-30T05:27:32.293Z,20.87
2019-04-30T05:29:59.566Z,22.50
2019-04-30T05:32:25.684Z,21.10
2019-04-30T05:34:52.942Z,20.53
2019-04-30T05:37:19.121Z,19.27
2019-04-30T05:39:45.134Z,21.40
2019-04-30T05:42:11.158Z,21.97
2019-04-30T05:44:37.178Z,19.57
2019-04-30T05:47:03.733Z,21.50
2019-04-30T05:49:29.761Z,19.20
2019-04-30T05:51:56.039Z,22.33
2019-04-30T05:54:22.355Z,22.10
2019-04-30T05:56:50.514Z,19.77
2019-04-30T05:59:16.609Z,20.30
2019-04-30T06:01:48.111Z,21.10
2019-04-30T06:04:12.962Z,19.03
2019-04-30T06:06:39.233Z,20.97
2019-04-30T06:09:28.055Z,19.87
2019-04-30T06:11:51.521Z,21.23
2019-04-30T06:14:48.416Z,21.40
2019-04-30T06:17:09.928Z,20.70
2019-04-30T06:19:36.364Z,20.90
2019-04-30T06:22:07.486Z,20.27
2019-04-30T06:24:33.513Z,20.97
2019-04-30T06:27:01.738Z,19.53
2019-04-30T06:29:29.026Z,20.20
2019-04-30T06:31:56.352Z,20.03
2019-04-30T06:34:23.309Z,22.57
2019-04-30T06:36:53.370Z,21.43
2019-04-30T06:39:18.874Z,20.40
2019-04-30T06:41:49.368Z,20.50
2019-04-30T06:44:16.139Z,19.70
2019-04-30T06:46:42.429Z,19.03
2019-04-30T06:49:09.921Z,21.00
2019-04-30T06:51:38.884Z,19.43
2019-04-30T06:54:06.178Z,17.90
2019-04-30T06:56:32.749Z,17.20
2019-04-30T06:59:00.222Z,18.30
2019-04-30T07:01:29.063Z,17.37
2019-04-30T07:04:01.938Z,17.50
2019-04-30T07:06:32.746Z,15.90
2019-04-30T07:09:08.808Z,16.50
2019-04-30T07:11:40.564Z,15.20
2019-04-30T07:14:06.843Z,16.40
2019-04-30T07:16:35.913Z,16.17
2019-04-30T07:19:02.051Z,16.40
2019-04-30T07:21:31.207Z,14.63
2019-04-30T07:23:56.063Z,16.20
2019-04-30T07:26:24.424Z,14.40
2019-04-30T07:28:55.285Z,17.23
2019-04-30T07:31:22.001Z,14.70
2019-04-30T07:33:51.496Z,15.77
2019-04-30T07:36:16.125Z,14.37
2019-04-30T07:38:51.872Z,16.80
2019-04-30T07:41:13.072Z,16.77
2019-04-30T07:43:40.366Z,15.97
2019-04-30T07:46:09.299Z,16.77
2019-04-30T07:48:36.321Z,15.90
2019-04-30T07:51:02.549Z,16.70
2019-04-30T07:53:31.021Z,14.97
2019-04-30T07:55:58.819Z,16.73
2019-04-30T07:58:25.004Z,16.23
2019-04-30T08:00:56.074Z,14.57
2019-04-30T08:03:21.585Z,16.13
2019-04-30T08:05:50.884Z,14.27
2019-04-30T08:08:24.557Z,16.50
2019-04-30T08:10:50.983Z,14.97
2019-04-30T08:13:17.707Z,14.50
2019-04-30T08:15:44.405Z,14.20
2019-04-30T08:18:13.988Z,15.60
2019-04-30T08:20:40.126Z,15.33
2019-04-30T08:23:14.076Z,15.90
2019-04-30T08:25:34.215Z,14.60
2019-04-30T08:28:00.209Z,15.17
2019-04-30T08:30:27.115Z,16.13
2019-04-30T08:32:55.275Z,15.00
2019-04-30T08:35:21.589Z,16.37
2019-04-30T08:37:49.516Z,15.40
2019-04-30T08:40:15.766Z,14.50
2019-04-30T08:42:42.044Z,13.47
2019-04-30T08:45:09.636Z,15.13
2019-04-30T08:47:36.426Z,14.77
2019-04-30T08:50:04.467Z,13.77
2019-04-30T08:52:30.873Z,16.40
2019-04-30T08:55:12.416Z,13.63
2019-04-30T08:57:24.988Z,14.83
2019-04-30T08:59:50.992Z,13.90
2019-04-30T09:02:19.546Z,13.47
2019-04-30T09:04:45.944Z,13.40
2019-04-30T09:07:12.995Z,13.53
2019-04-30T09:09:39.048Z,13.53
2019-04-30T09:12:06.348Z,13.50
2019-04-30T09:14:40.728Z,12.57
2019-04-30T09:17:06.835Z,13.70
2019-04-30T09:19:35.087Z,13.90
2019-04-30T09:22:03.341Z,12.70
2019-04-30T09:24:31.077Z,14.30
2019-04-30T09:26:58.925Z,14.00
2019-04-30T09:29:25.119Z,14.33
2019-04-30T09:31:53.141Z,13.17
2019-04-30T09:34:21.019Z,13.80
2019-04-30T09:36:50.295Z,12.90
2019-04-30T09:39:16.469Z,13.50
2019-04-30T09:41:43.732Z,12.27
2019-04-30T09:44:10.055Z,12.97
2019-04-30T09:46:36.188Z,12.50
2019-04-30T09:49:02.461Z,12.67
2019-04-30T09:51:30.504Z,12.50
2019-04-30T09:53:59.645Z,11.40
2019-04-30T09:56:25.445Z,12.80
2019-04-30T09:58:52.447Z,10.77
2019-04-30T10:01:22.063Z,11.50
2019-04-30T10:03:50.456Z,11.10
2019-04-30T10:06:16.585Z,13.80
2019-04-30T10:08:48.641Z,12.60
2019-04-30T10:11:17.962Z,10.50
2019-04-30T10:13:44.595Z,11.57
2019-04-30T10:16:29.537Z,11.07
2019-04-30T10:18:55.621Z,11.43
2019-04-30T10:21:21.769Z,10.80
2019-04-30T10:23:49.919Z,10.80
2019-04-30T10:26:17.738Z,11.83
2019-04-30T10:28:44.833Z,12.37
2019-04-30T10:31:10.833Z,11.50
2019-04-30T10:33:38.632Z,11.27
2019-04-30T10:36:04.704Z,12.50
2019-04-30T10:38:30.910Z,11.00
2019-04-30T10:40:58.617Z,10.80
2019-04-30T10:43:25.074Z,14.80
2019-04-30T10:45:52.458Z,11.30
2019-04-30T10:48:18.633Z,11.30
2019-04-30T10:50:44.853Z,10.80
2019-04-30T10:53:12.430Z,10.50
2019-04-30T10:55:38.815Z,11.07
2019-04-30T10:58:06.430Z,10.20
2019-04-30T11:00:39.031Z,9.40
2019-04-30T11:03:17.303Z,8.60
2019-04-30T11:05:35.458Z,10.30
2019-04-30T11:08:05.234Z,10.03
2019-04-30T11:10:34.284Z,10.70
2019-04-30T11:13:00.896Z,9.37
2019-04-30T11:15:30.361Z,9.73
2019-04-30T11:17:59.853Z,7.87
2019-04-30T11:20:29.630Z,8.07
2019-04-30T11:22:55.361Z,8.30
2019-04-30T11:25:22.116Z,7.77
2019-04-30T11:27:50.687Z,8.27
2019-04-30T11:30:21.298Z,8.33
2019-04-30T11:32:47.051Z,8.30
2019-04-30T11:35:13.936Z,9.30
2019-04-30T11:37:40.047Z,9.00
2019-04-30T11:40:07.685Z,8.90
2019-04-30T11:42:33.829Z,8.90
2019-04-30T11:44:59.975Z,9.10
2019-04-30T11:47:28.987Z,8.97
2019-04-30T11:49:55.041Z,9.07
2019-04-30T11:52:21.479Z,9.00
2019-04-30T11:54:51.675Z,8.47
2019-04-30T11:57:15.635Z,8.70
2019-04-30T11:59:42.027Z,8.83
2019-04-30T12:02:10.092Z,9.67
2019-04-30T12:04:39.319Z,9.03
2019-04-30T12:07:07.315Z,8.40
2019-04-30T12:09:52.715Z,7.90
2019-04-30T12:12:19.070Z,8.43
2019-04-30T12:14:47.169Z,9.67
2019-04-30T12:17:13.250Z,8.57
2019-04-30T12:19:39.414Z,9.23
2019-04-30T12:22:05.466Z,9.60
2019-04-30T12:24:31.541Z,9.60
2019-04-30T12:26:57.655Z,10.10
2019-04-30T12:29:23.893Z,8.63
2019-04-30T12:31:50.377Z,9.63
2019-04-30T12:34:16.680Z,7.67
2019-04-30T12:36:42.873Z,9.80
2019-04-30T12:39:10.188Z,8.83
2019-04-30T12:41:40.393Z,8.60
2019-04-30T12:44:06.063Z,8.93
2019-04-30T12:46:34.075Z,8.30
2019-04-30T12:49:05.893Z,8.83
2019-04-30T12:51:45.314Z,7.73
2019-04-30T12:54:07.502Z,8.30
2019-04-30T12:56:36.427Z,9.23
2019-04-30T12:59:02.767Z,7.53
2019-04-30T13:01:31.871Z,8.87
2019-04-30T13:03:59.371Z,9.17
2019-04-30T13:06:27.337Z,8.77
2019-04-30T13:08:55.554Z,10.23
2019-04-30T13:11:23.595Z,9.67
2019-04-30T13:13:51.970Z,8.80
2019-04-30T13:16:19.400Z,9.30
2019-04-30T13:18:46.557Z,9.13
2019-04-30T13:21:13.590Z,9.70
2019-04-30T13:23:40.672Z,8.23
2019-04-30T13:26:08.799Z,8.90
2019-04-30T13:28:50.474Z,8.80
2019-04-30T13:31:16.491Z,9.33
2019-04-30T13:33:50.055Z,9.10
2019-04-30T13:36:15.131Z,8.57
2019-04-30T13:38:49.069Z,8.30
2019-04-30T13:41:18.758Z,9.07
2019-04-30T13:43:55.671Z,8.77
2019-04-30T13:46:22.541Z,9.30
2019-04-30T13:48:51.364Z,9.10
2019-04-30T13:51:25.168Z,8.87
2019-04-30T13:53:51.227Z,7.80
2019-04-30T13:56:19.989Z,8.13
2019-04-30T13:58:46.475Z,8.30
2019-04-30T14:01:12.439Z,7.93
2019-04-30T14:03:45.138Z,7.90
2019-04-30T14:06:13.294Z,8.53
2019-04-30T14:08:43.214Z,8.43
2019-04-30T14:11:09.452Z,9.00
2019-04-30T14:13:35.847Z,9.30
2019-04-30T14:16:03.235Z,8.90
2019-04-30T14:18:33.800Z,8.70
2019-04-30T14:21:00.766Z,8.67
2019-04-30T14:23:28.544Z,9.40
2019-04-30T14:25:56.943Z,9.53
2019-04-30T14:28:24.352Z,9.40
2019-04-30T14:30:50.404Z,8.93
2019-04-30T14:33:25.577Z,7.97
2019-04-30T14:35:46.267Z,9.33
2019-04-30T14:38:12.319Z,10.00
2019-04-30T14:40:40.360Z,9.67
2019-04-30T14:43:09.799Z,9.83
2019-04-30T14:45:56.381Z,10.00
2019-04-30T14:48:26.489Z,9.70
2019-04-30T14:51:00.678Z,10.73
2019-04-30T14:53:30.435Z,10.37
2019-04-30T14:56:14.882Z,9.70
2019-04-30T14:58:55.749Z,9.93
2019-04-30T15:01:30.047Z,10.50
2019-04-30T15:03:58.953Z,10.30
2019-04-30T15:06:25.299Z,9.43
2019-04-30T15:08:53.050Z,10.23
2019-04-30T15:11:24.171Z,9.97
2019-04-30T15:13:51.281Z,10.10
2019-04-30T15:16:19.425Z,10.67
2019-04-30T15:18:46.567Z,9.97
2019-04-30T15:21:13.696Z,10.90
2019-04-30T15:23:56.402Z,11.07
2019-04-30T15:26:22.914Z,10.00
2019-04-30T15:28:45.931Z,12.63
2019-04-30T15:31:12.950Z,9.97
2019-04-30T15:33:43.374Z,10.50
2019-04-30T15:36:11.202Z,11.00
2019-04-30T15:38:57.389Z,9.70
2019-04-30T15:41:23.491Z,10.13
2019-04-30T15:43:54.252Z,10.50
2019-04-30T15:46:20.346Z,10.13
2019-04-30T15:48:47.035Z,10.27
2019-04-30T15:51:15.452Z,10.17
2019-04-30T15:53:41.914Z,10.40
2019-04-30T15:56:08.551Z,10.00
2019-04-30T15:58:36.567Z,10.00
2019-04-30T16:01:05.806Z,9.90
2019-04-30T16:03:36.559Z,10.50
2019-04-30T16:06:03.630Z,10.97
2019-04-30T16:08:33.718Z,10.67
2019-04-30T16:11:16.749Z,10.47
2019-04-30T16:13:44.755Z,10.00
2019-04-30T16:16:13.134Z,9.83
2019-04-30T16:18:40.720Z,9.60
2019-04-30T16:21:09.238Z,10.10
2019-04-30T16:23:35.333Z,10.40
2019-04-30T16:26:01.351Z,10.60
2019-04-30T16:28:29.553Z,11.13
2019-04-30T16:30:55.605Z,10.27
2019-04-30T16:33:21.609Z,11.07
2019-04-30T16:35:50.796Z,10.17
2019-04-30T16:38:31.681Z,10.70
2019-04-30T16:40:51.956Z,11.00
2019-04-30T16:43:20.013Z,11.17
2019-04-30T16:45:49.815Z,10.33
2019-04-30T16:48:16.138Z,9.80
2019-04-30T16:50:42.240Z,10.40
2019-04-30T16:53:08.285Z,11.20
2019-04-30T16:55:34.281Z,10.33
2019-04-30T16:58:00.362Z,10.37
2019-04-30T17:00:28.807Z,9.87
2019-04-30T17:02:58.316Z,11.07
2019-04-30T17:05:35.624Z,9.93
2019-04-30T17:08:03.655Z,10.50
2019-04-30T17:10:51.001Z,11.13
2019-04-30T17:13:21.502Z,9.80
2019-04-30T17:15:49.530Z,10.37
2019-04-30T17:18:15.611Z,10.60
2019-04-30T17:20:41.967Z,9.30
2019-04-30T17:23:09.454Z,10.37
2019-04-30T17:25:38.882Z,10.33
2019-04-30T17:28:09.227Z,10.23
2019-04-30T17:30:40.044Z,11.07
2019-04-30T17:33:09.839Z,11.10
2019-04-30T17:35:49.858Z,10.00
2019-04-30T17:38:16.011Z,10.17
2019-04-30T17:40:42.397Z,11.27
2019-04-30T17:43:08.615Z,10.27
2019-04-30T17:45:34.615Z,9.87
2019-04-30T17:48:00.625Z,10.00
2019-04-30T17:50:26.762Z,10.07
2019-04-30T17:52:55.756Z,10.50
2019-04-30T17:55:22.462Z,9.97
2019-04-30T17:57:49.498Z,10.50
2019-04-30T18:00:19.918Z,11.63
2019-04-30T18:02:44.911Z,11.20
2019-04-30T18:05:11.504Z,10.53
2019-04-30T18:07:39.468Z,10.50
2019-04-30T18:10:09.182Z,11.10
2019-04-30T18:12:36.189Z,11.90
2019-04-30T18:15:06.552Z,11.80
2019-04-30T18:17:32.555Z,10.67
2019-04-30T18:20:03.274Z,10.80
2019-04-30T18:22:40.005Z,10.83
2019-04-30T18:25:16.765Z,15.77
2019-04-30T18:27:49.489Z,11.40
2019-04-30T18:30:18.982Z,11.37
2019-04-30T18:32:48.545Z,11.67
2019-04-30T18:35:15.656Z,10.23
2019-04-30T18:37:42.667Z,11.17
2019-04-30T18:40:09.633Z,10.70
2019-04-30T18:42:36.128Z,10.85
2019-04-30T18:45:02.527Z,11.60
2019-04-30T18:47:28.657Z,11.97
2019-04-30T18:49:54.706Z,10.63
2019-04-30T18:52:20.944Z,12.10
2019-04-30T18:54:49.552Z,11.50
2019-04-30T18:57:15.639Z,13.40
2019-04-30T18:59:41.689Z,13.93
2019-04-30T19:02:13.391Z,11.93
2019-04-30T19:04:40.967Z,12.17
2019-04-30T19:07:12.402Z,11.43
2019-04-30T19:09:56.578Z,12.57
2019-04-30T19:12:33.474Z,11.70
2019-04-30T19:15:13.654Z,12.60
2019-04-30T19:17:56.764Z,11.40
2019-04-30T19:20:28.657Z,13.03
2019-04-30T19:22:56.243Z,15.47
2019-04-30T19:25:22.293Z,12.00
2019-04-30T19:27:50.511Z,13.40
2019-04-30T19:30:19.289Z,14.10
2019-04-30T19:32:49.015Z,12.63
2019-04-30T19:35:15.171Z,13.20
2019-04-30T19:37:42.428Z,12.80
2019-04-30T19:40:09.855Z,12.67
2019-04-30T19:42:37.034Z,13.57
2019-04-30T19:45:10.249Z,12.57
2019-04-30T19:47:32.405Z,13.03
2019-04-30T19:49:59.488Z,12.63
2019-04-30T19:52:33.551Z,13.23
2019-04-30T19:54:59.626Z,12.87
2019-04-30T19:57:28.667Z,12.73
2019-04-30T19:59:58.546Z,13.80
2019-04-30T20:02:24.739Z,13.10
2019-04-30T20:04:51.039Z,13.47
2019-04-30T20:07:19.560Z,13.47
2019-04-30T20:09:57.224Z,13.67
2019-04-30T20:12:13.792Z,12.53
2019-04-30T20:14:39.807Z,13.43
2019-04-30T20:17:05.844Z,13.17
2019-04-30T20:19:31.853Z,13.40
2019-04-30T20:21:59.468Z,13.10
2019-04-30T20:24:25.760Z,12.70
2019-04-30T20:27:04.165Z,13.53
2019-04-30T20:29:20.936Z,13.20
2019-04-30T20:31:48.754Z,13.90
2019-04-30T20:34:15.911Z,12.53
2019-04-30T20:36:43.980Z,12.93
2019-04-30T20:39:15.960Z,12.60
2019-04-30T20:41:42.137Z,14.03
2019-04-30T20:44:08.833Z,14.00
2019-04-30T20:46:36.143Z,12.47
2019-04-30T20:49:02.494Z,13.40
2019-04-30T20:51:29.149Z,13.20
2019-04-30T20:53:55.445Z,12.43
2019-04-30T20:56:21.480Z,12.30
2019-04-30T20:58:57.787Z,13.53
2019-04-30T21:01:19.196Z,12.90
2019-04-30T21:03:45.076Z,15.70
2019-04-30T21:06:12.503Z,12.90
2019-04-30T21:08:38.995Z,14.80
2019-04-30T21:11:06.423Z,13.27
2019-04-30T21:13:34.452Z,12.60
2019-04-30T21:16:01.471Z,14.40
2019-04-30T21:18:30.405Z,13.53
2019-04-30T21:20:55.362Z,13.43
2019-04-30T21:23:21.545Z,14.50
2019-04-30T21:25:48.785Z,13.60
2019-04-30T21:28:14.932Z,13.60
2019-04-30T21:30:41.221Z,13.43
2019-04-30T21:33:09.370Z,13.20
2019-04-30T21:35:44.095Z,13.77
2019-04-30T21:38:11.261Z,13.73
2019-04-30T21:40:39.312Z,15.50
2019-04-30T21:43:05.406Z,17.60
2019-04-30T21:45:36.047Z,14.80
2019-04-30T21:48:02.067Z,13.83
2019-04-30T21:50:29.675Z,14.47
2019-04-30T21:52:55.997Z,13.40
2019-04-30T21:55:22.028Z,15.83
2019-04-30T21:57:49.658Z,14.77
2019-04-30T22:00:21.547Z,15.83
2019-04-30T22:02:49.983Z,15.30
2019-04-30T22:05:16.555Z,14.40
2019-04-30T22:07:43.575Z,15.50
2019-04-30T22:10:11.088Z,15.63
2019-04-30T22:12:38.899Z,15.47
2019-04-30T22:15:06.258Z,15.20
2019-04-30T22:17:32.281Z,15.63
2019-04-30T22:19:59.649Z,15.30
2019-04-30T22:22:25.844Z,13.47
2019-04-30T22:24:51.995Z,15.80
2019-04-30T22:27:18.060Z,15.53
2019-04-30T22:29:44.085Z,16.23
2019-04-30T22:32:10.588Z,16.07
2019-04-30T22:34:36.599Z,15.73
2019-04-30T22:37:04.808Z,27.37
2019-04-30T22:39:35.201Z,19.90
2019-04-30T22:42:19.652Z,16.27
2019-04-30T22:44:47.679Z,16.47
2019-04-30T22:47:13.750Z,16.50
2019-04-30T22:49:40.948Z,17.17
2019-04-30T22:52:06.935Z,16.90
2019-04-30T22:54:32.948Z,16.47
2019-04-30T22:56:58.967Z,17.50
2019-04-30T22:59:25.001Z,17.23
2019-04-30T23:02:09.551Z,16.67
2019-04-30T23:04:37.569Z,17.00
2019-04-30T23:07:03.905Z,17.00
2019-04-30T23:09:29.970Z,16.63
2019-04-30T23:11:56.025Z,16.40
2019-04-30T23:14:22.032Z,16.50
2019-04-30T23:16:48.035Z,17.10
2019-04-30T23:19:14.045Z,15.73
2019-04-30T23:21:40.052Z,18.50
2019-04-30T23:24:06.041Z,16.83
2019-04-30T23:26:32.079Z,16.60
2019-04-30T23:28:58.083Z,15.80
2019-04-30T23:31:24.130Z,17.63
2019-04-30T23:33:50.174Z,17.20
2019-04-30T23:36:16.169Z,16.73
2019-04-30T23:38:42.220Z,16.43
2019-04-30T23:41:08.248Z,17.20
2019-04-30T23:43:34.329Z,17.90
2019-04-30T23:46:01.403Z,17.70
2019-04-30T23:48:27.421Z,20.87
2019-04-30T23:50:53.406Z,18.30
2019-04-30T23:53:19.446Z,16.97
2019-04-30T23:55:45.474Z,18.97
2019-04-30T23:58:11.744Z,18.10
